sensor_id;sensor_type;location;lat;lon;timestamp;P1;durP1;ratioP1;P2;durP2;ratioP2
59728;SDS011;45588;51.598;5.618;2023-03-01T00:00:05;14.52;;;9.82;;
59728;SDS011;45588;51.598;5.618;2023-03-01T00:02:32;14.80;;;10.80;;
59728;SDS011;45588;51.598;5.618;2023-03-01T00:04:57;12.43;;;9.10;;
59728;SDS011;45588;51.598;5.618;2023-03-01T00:07:22;15.30;;;9.45;;
59728;SDS011;45588;51.598;5.618;2023-03-01T00:09:47;21.30;;;11.50;;
59728;SDS011;45588;51.598;5.618;2023-03-01T00:12:12;13.40;;;9.98;;
59728;SDS011;45588;51.598;5.618;2023-03-01T00:14:38;13.38;;;9.68;;
59728;SDS011;45588;51.598;5.618;2023-03-01T00:17:03;14.10;;;9.38;;
59728;SDS011;45588;51.598;5.618;2023-03-01T00:19:28;14.52;;;10.32;;
59728;SDS011;45588;51.598;5.618;2023-03-01T00:21:53;16.08;;;9.75;;
59728;SDS011;45588;51.598;5.618;2023-03-01T00:24:19;17.60;;;10.77;;
59728;SDS011;45588;51.598;5.618;2023-03-01T00:26:44;16.08;;;11.05;;
59728;SDS011;45588;51.598;5.618;2023-03-01T00:29:09;17.30;;;12.23;;
59728;SDS011;45588;51.598;5.618;2023-03-01T00:31:34;15.90;;;10.52;;
59728;SDS011;45588;51.598;5.618;2023-03-01T00:34:01;17.13;;;11.10;;
59728;SDS011;45588;51.598;5.618;2023-03-01T00:36:34;16.48;;;11.57;;
59728;SDS011;45588;51.598;5.618;2023-03-01T00:39:00;17.25;;;11.30;;
59728;SDS011;45588;51.598;5.618;2023-03-01T00:41:25;17.42;;;11.88;;
59728;SDS011;45588;51.598;5.618;2023-03-01T00:43:54;18.52;;;12.30;;
59728;SDS011;45588;51.598;5.618;2023-03-01T00:46:20;17.90;;;12.95;;
59728;SDS011;45588;51.598;5.618;2023-03-01T00:48:45;16.17;;;11.75;;
59728;SDS011;45588;51.598;5.618;2023-03-01T00:51:12;17.15;;;12.65;;
59728;SDS011;45588;51.598;5.618;2023-03-01T00:53:38;20.90;;;12.77;;
59728;SDS011;45588;51.598;5.618;2023-03-01T00:56:04;23.58;;;14.45;;
59728;SDS011;45588;51.598;5.618;2023-03-01T00:58:30;21.25;;;13.75;;
59728;SDS011;45588;51.598;5.618;2023-03-01T01:00:55;19.90;;;12.60;;
59728;SDS011;45588;51.598;5.618;2023-03-01T01:03:20;18.33;;;12.43;;
59728;SDS011;45588;51.598;5.618;2023-03-01T01:05:46;17.58;;;12.23;;
59728;SDS011;45588;51.598;5.618;2023-03-01T01:08:11;17.67;;;11.85;;
59728;SDS011;45588;51.598;5.618;2023-03-01T01:10:36;19.40;;;11.63;;
59728;SDS011;45588;51.598;5.618;2023-03-01T01:13:01;22.17;;;13.75;;
59728;SDS011;45588;51.598;5.618;2023-03-01T01:15:27;20.67;;;13.82;;
59728;SDS011;45588;51.598;5.618;2023-03-01T01:17:52;19.95;;;12.65;;
59728;SDS011;45588;51.598;5.618;2023-03-01T01:20:17;17.85;;;11.57;;
59728;SDS011;45588;51.598;5.618;2023-03-01T01:22:42;22.23;;;11.27;;
59728;SDS011;45588;51.598;5.618;2023-03-01T01:25:08;21.63;;;12.68;;
59728;SDS011;45588;51.598;5.618;2023-03-01T01:27:33;19.38;;;11.35;;
59728;SDS011;45588;51.598;5.618;2023-03-01T01:29:58;18.83;;;11.93;;
59728;SDS011;45588;51.598;5.618;2023-03-01T01:32:23;18.33;;;11.48;;
59728;SDS011;45588;51.598;5.618;2023-03-01T01:34:49;18.02;;;12.10;;
59728;SDS011;45588;51.598;5.618;2023-03-01T01:37:14;21.02;;;11.45;;
59728;SDS011;45588;51.598;5.618;2023-03-01T01:39:39;18.92;;;11.15;;
59728;SDS011;45588;51.598;5.618;2023-03-01T01:42:04;17.25;;;11.85;;
59728;SDS011;45588;51.598;5.618;2023-03-01T01:44:29;16.92;;;10.85;;
59728;SDS011;45588;51.598;5.618;2023-03-01T01:49:36;16.60;;;12.20;;
59728;SDS011;45588;51.598;5.618;2023-03-01T01:52:04;15.40;;;11.25;;
59728;SDS011;45588;51.598;5.618;2023-03-01T01:54:39;17.45;;;10.68;;
59728;SDS011;45588;51.598;5.618;2023-03-01T01:57:07;23.70;;;11.35;;
59728;SDS011;45588;51.598;5.618;2023-03-01T01:59:34;16.30;;;10.77;;
59728;SDS011;45588;51.598;5.618;2023-03-01T02:01:59;15.02;;;11.02;;
59728;SDS011;45588;51.598;5.618;2023-03-01T02:04:25;18.38;;;11.80;;
59728;SDS011;45588;51.598;5.618;2023-03-01T02:06:57;20.20;;;11.55;;
59728;SDS011;45588;51.598;5.618;2023-03-01T02:09:23;16.30;;;10.40;;
59728;SDS011;45588;51.598;5.618;2023-03-01T02:11:48;17.42;;;10.02;;
59728;SDS011;45588;51.598;5.618;2023-03-01T02:14:14;16.83;;;11.45;;
59728;SDS011;45588;51.598;5.618;2023-03-01T02:16:39;16.92;;;9.75;;
59728;SDS011;45588;51.598;5.618;2023-03-01T02:19:07;15.80;;;10.68;;
59728;SDS011;45588;51.598;5.618;2023-03-01T02:21:40;21.23;;;12.45;;
59728;SDS011;45588;51.598;5.618;2023-03-01T02:24:30;18.45;;;11.52;;
59728;SDS011;45588;51.598;5.618;2023-03-01T02:26:52;20.02;;;12.48;;
59728;SDS011;45588;51.598;5.618;2023-03-01T02:29:19;20.92;;;12.65;;
59728;SDS011;45588;51.598;5.618;2023-03-01T02:31:45;22.25;;;12.38;;
59728;SDS011;45588;51.598;5.618;2023-03-01T02:34:13;18.67;;;12.38;;
59728;SDS011;45588;51.598;5.618;2023-03-01T02:36:39;27.05;;;12.13;;
59728;SDS011;45588;51.598;5.618;2023-03-01T02:39:07;19.02;;;11.95;;
59728;SDS011;45588;51.598;5.618;2023-03-01T02:41:34;20.63;;;12.20;;
59728;SDS011;45588;51.598;5.618;2023-03-01T02:44:00;17.30;;;12.25;;
59728;SDS011;45588;51.598;5.618;2023-03-01T02:46:26;18.85;;;13.05;;
59728;SDS011;45588;51.598;5.618;2023-03-01T02:48:52;16.85;;;11.57;;
59728;SDS011;45588;51.598;5.618;2023-03-01T02:56:26;18.10;;;11.32;;
59728;SDS011;45588;51.598;5.618;2023-03-01T02:58:52;21.83;;;11.63;;
59728;SDS011;45588;51.598;5.618;2023-03-01T03:01:18;20.23;;;11.95;;
59728;SDS011;45588;51.598;5.618;2023-03-01T03:03:44;18.10;;;11.95;;
59728;SDS011;45588;51.598;5.618;2023-03-01T03:06:09;20.08;;;12.35;;
59728;SDS011;45588;51.598;5.618;2023-03-01T03:08:34;19.58;;;12.50;;
59728;SDS011;45588;51.598;5.618;2023-03-01T03:11:00;23.83;;;13.50;;
59728;SDS011;45588;51.598;5.618;2023-03-01T03:13:25;19.35;;;12.32;;
59728;SDS011;45588;51.598;5.618;2023-03-01T03:15:53;22.35;;;13.40;;
59728;SDS011;45588;51.598;5.618;2023-03-01T03:18:18;20.15;;;12.50;;
59728;SDS011;45588;51.598;5.618;2023-03-01T03:20:44;18.00;;;12.13;;
59728;SDS011;45588;51.598;5.618;2023-03-01T03:23:09;19.27;;;12.00;;
59728;SDS011;45588;51.598;5.618;2023-03-01T03:25:34;20.67;;;11.13;;
59728;SDS011;45588;51.598;5.618;2023-03-01T03:28:02;25.00;;;13.40;;
59728;SDS011;45588;51.598;5.618;2023-03-01T03:30:34;20.05;;;12.35;;
59728;SDS011;45588;51.598;5.618;2023-03-01T03:32:59;19.98;;;12.13;;
59728;SDS011;45588;51.598;5.618;2023-03-01T03:35:26;22.48;;;11.75;;
59728;SDS011;45588;51.598;5.618;2023-03-01T03:37:53;19.30;;;12.05;;
59728;SDS011;45588;51.598;5.618;2023-03-01T03:40:28;19.48;;;11.82;;
59728;SDS011;45588;51.598;5.618;2023-03-01T03:42:53;22.92;;;12.90;;
59728;SDS011;45588;51.598;5.618;2023-03-01T03:45:18;18.40;;;12.20;;
59728;SDS011;45588;51.598;5.618;2023-03-01T03:47:44;20.05;;;11.65;;
59728;SDS011;45588;51.598;5.618;2023-03-01T03:50:10;19.73;;;12.77;;
59728;SDS011;45588;51.598;5.618;2023-03-01T03:52:35;21.00;;;12.55;;
59728;SDS011;45588;51.598;5.618;2023-03-01T03:55:00;19.88;;;11.55;;
59728;SDS011;45588;51.598;5.618;2023-03-01T03:57:25;20.15;;;11.05;;
59728;SDS011;45588;51.598;5.618;2023-03-01T03:59:50;21.40;;;13.40;;
59728;SDS011;45588;51.598;5.618;2023-03-01T04:02:16;17.42;;;11.02;;
59728;SDS011;45588;51.598;5.618;2023-03-01T04:04:47;22.55;;;12.70;;
59728;SDS011;45588;51.598;5.618;2023-03-01T04:07:14;22.70;;;12.55;;
59728;SDS011;45588;51.598;5.618;2023-03-01T04:09:39;21.90;;;11.80;;
59728;SDS011;45588;51.598;5.618;2023-03-01T04:12:06;18.92;;;12.65;;
59728;SDS011;45588;51.598;5.618;2023-03-01T04:14:31;20.45;;;12.48;;
59728;SDS011;45588;51.598;5.618;2023-03-01T04:16:57;23.20;;;13.27;;
59728;SDS011;45588;51.598;5.618;2023-03-01T04:19:22;23.73;;;12.88;;
59728;SDS011;45588;51.598;5.618;2023-03-01T04:21:47;22.10;;;12.45;;
59728;SDS011;45588;51.598;5.618;2023-03-01T04:24:12;22.58;;;12.65;;
59728;SDS011;45588;51.598;5.618;2023-03-01T04:26:38;19.70;;;11.75;;
59728;SDS011;45588;51.598;5.618;2023-03-01T04:29:03;21.00;;;12.95;;
59728;SDS011;45588;51.598;5.618;2023-03-01T04:31:28;18.55;;;11.65;;
59728;SDS011;45588;51.598;5.618;2023-03-01T04:33:54;25.67;;;14.68;;
59728;SDS011;45588;51.598;5.618;2023-03-01T04:36:24;18.55;;;11.85;;
59728;SDS011;45588;51.598;5.618;2023-03-01T04:38:50;18.60;;;12.82;;
59728;SDS011;45588;51.598;5.618;2023-03-01T04:41:16;22.90;;;11.77;;
59728;SDS011;45588;51.598;5.618;2023-03-01T04:43:41;22.20;;;13.57;;
59728;SDS011;45588;51.598;5.618;2023-03-01T04:46:08;20.05;;;12.77;;
59728;SDS011;45588;51.598;5.618;2023-03-01T04:48:34;18.85;;;11.85;;
59728;SDS011;45588;51.598;5.618;2023-03-01T04:51:00;19.90;;;12.48;;
59728;SDS011;45588;51.598;5.618;2023-03-01T04:53:25;26.85;;;13.45;;
59728;SDS011;45588;51.598;5.618;2023-03-01T04:55:51;23.25;;;13.55;;
59728;SDS011;45588;51.598;5.618;2023-03-01T04:58:16;26.27;;;14.45;;
59728;SDS011;45588;51.598;5.618;2023-03-01T05:00:41;22.65;;;13.57;;
59728;SDS011;45588;51.598;5.618;2023-03-01T05:03:07;25.20;;;13.52;;
59728;SDS011;45588;51.598;5.618;2023-03-01T05:05:34;20.42;;;12.90;;
59728;SDS011;45588;51.598;5.618;2023-03-01T05:08:00;22.52;;;14.18;;
59728;SDS011;45588;51.598;5.618;2023-03-01T05:10:26;22.73;;;14.55;;
59728;SDS011;45588;51.598;5.618;2023-03-01T05:12:53;24.83;;;14.52;;
59728;SDS011;45588;51.598;5.618;2023-03-01T05:15:19;22.42;;;12.95;;
59728;SDS011;45588;51.598;5.618;2023-03-01T05:17:46;27.58;;;14.65;;
59728;SDS011;45588;51.598;5.618;2023-03-01T05:20:11;24.95;;;14.70;;
59728;SDS011;45588;51.598;5.618;2023-03-01T05:22:37;24.95;;;14.95;;
59728;SDS011;45588;51.598;5.618;2023-03-01T05:25:03;37.20;;;13.30;;
59728;SDS011;45588;51.598;5.618;2023-03-01T05:27:28;23.35;;;13.05;;
59728;SDS011;45588;51.598;5.618;2023-03-01T05:29:54;25.92;;;13.93;;
59728;SDS011;45588;51.598;5.618;2023-03-01T05:32:19;23.40;;;12.82;;
59728;SDS011;45588;51.598;5.618;2023-03-01T05:34:45;23.95;;;14.38;;
59728;SDS011;45588;51.598;5.618;2023-03-01T05:37:11;23.00;;;13.05;;
59728;SDS011;45588;51.598;5.618;2023-03-01T05:39:36;24.38;;;12.82;;
59728;SDS011;45588;51.598;5.618;2023-03-01T05:42:02;22.88;;;12.95;;
59728;SDS011;45588;51.598;5.618;2023-03-01T05:44:27;26.20;;;14.18;;
59728;SDS011;45588;51.598;5.618;2023-03-01T05:46:53;24.10;;;13.15;;
59728;SDS011;45588;51.598;5.618;2023-03-01T05:49:18;26.27;;;14.52;;
59728;SDS011;45588;51.598;5.618;2023-03-01T05:51:47;29.20;;;13.88;;
59728;SDS011;45588;51.598;5.618;2023-03-01T05:54:12;23.05;;;12.63;;
59728;SDS011;45588;51.598;5.618;2023-03-01T05:56:37;26.65;;;13.80;;
59728;SDS011;45588;51.598;5.618;2023-03-01T05:59:03;23.60;;;13.90;;
59728;SDS011;45588;51.598;5.618;2023-03-01T06:01:28;32.17;;;14.48;;
59728;SDS011;45588;51.598;5.618;2023-03-01T06:03:54;26.73;;;13.80;;
59728;SDS011;45588;51.598;5.618;2023-03-01T06:06:19;22.75;;;12.73;;
59728;SDS011;45588;51.598;5.618;2023-03-01T06:08:44;27.85;;;14.90;;
59728;SDS011;45588;51.598;5.618;2023-03-01T06:11:09;28.75;;;14.93;;
59728;SDS011;45588;51.598;5.618;2023-03-01T06:13:35;25.63;;;14.60;;
59728;SDS011;45588;51.598;5.618;2023-03-01T06:16:00;28.90;;;15.25;;
59728;SDS011;45588;51.598;5.618;2023-03-01T06:18:25;25.08;;;15.48;;
59728;SDS011;45588;51.598;5.618;2023-03-01T06:20:53;27.25;;;15.30;;
59728;SDS011;45588;51.598;5.618;2023-03-01T06:23:19;28.25;;;15.02;;
59728;SDS011;45588;51.598;5.618;2023-03-01T06:25:44;27.10;;;17.05;;
59728;SDS011;45588;51.598;5.618;2023-03-01T06:28:09;30.33;;;14.43;;
59728;SDS011;45588;51.598;5.618;2023-03-01T06:30:34;25.15;;;15.05;;
59728;SDS011;45588;51.598;5.618;2023-03-01T06:33:00;30.27;;;15.85;;
59728;SDS011;45588;51.598;5.618;2023-03-01T06:35:28;25.23;;;16.08;;
59728;SDS011;45588;51.598;5.618;2023-03-01T06:37:55;26.33;;;16.60;;
59728;SDS011;45588;51.598;5.618;2023-03-01T06:40:20;33.28;;;17.05;;
59728;SDS011;45588;51.598;5.618;2023-03-01T06:42:48;31.67;;;17.70;;
59728;SDS011;45588;51.598;5.618;2023-03-01T06:45:17;33.75;;;16.92;;
59728;SDS011;45588;51.598;5.618;2023-03-01T06:47:42;28.30;;;15.30;;
59728;SDS011;45588;51.598;5.618;2023-03-01T06:50:08;33.15;;;17.38;;
59728;SDS011;45588;51.598;5.618;2023-03-01T06:52:33;28.58;;;16.02;;
59728;SDS011;45588;51.598;5.618;2023-03-01T06:54:58;30.92;;;17.02;;
59728;SDS011;45588;51.598;5.618;2023-03-01T06:57:23;27.90;;;14.93;;
59728;SDS011;45588;51.598;5.618;2023-03-01T06:59:48;29.27;;;16.08;;
59728;SDS011;45588;51.598;5.618;2023-03-01T07:02:14;29.00;;;15.05;;
59728;SDS011;45588;51.598;5.618;2023-03-01T07:04:40;35.70;;;17.10;;
59728;SDS011;45588;51.598;5.618;2023-03-01T07:07:05;32.58;;;17.80;;
59728;SDS011;45588;51.598;5.618;2023-03-01T07:09:30;29.27;;;17.83;;
59728;SDS011;45588;51.598;5.618;2023-03-01T07:11:56;37.58;;;18.73;;
59728;SDS011;45588;51.598;5.618;2023-03-01T07:14:21;34.50;;;18.67;;
59728;SDS011;45588;51.598;5.618;2023-03-01T07:16:46;33.22;;;19.00;;
59728;SDS011;45588;51.598;5.618;2023-03-01T07:19:11;27.95;;;18.15;;
59728;SDS011;45588;51.598;5.618;2023-03-01T07:21:37;38.08;;;21.50;;
59728;SDS011;45588;51.598;5.618;2023-03-01T07:24:04;39.88;;;18.95;;
59728;SDS011;45588;51.598;5.618;2023-03-01T07:26:29;31.75;;;18.92;;
59728;SDS011;45588;51.598;5.618;2023-03-01T07:28:55;33.30;;;18.25;;
59728;SDS011;45588;51.598;5.618;2023-03-01T07:31:20;35.38;;;19.95;;
59728;SDS011;45588;51.598;5.618;2023-03-01T07:33:45;35.03;;;18.30;;
59728;SDS011;45588;51.598;5.618;2023-03-01T07:36:10;34.78;;;20.65;;
59728;SDS011;45588;51.598;5.618;2023-03-01T07:38:35;33.88;;;20.27;;
59728;SDS011;45588;51.598;5.618;2023-03-01T07:41:01;43.03;;;22.48;;
59728;SDS011;45588;51.598;5.618;2023-03-01T07:43:27;33.67;;;20.10;;
59728;SDS011;45588;51.598;5.618;2023-03-01T07:45:52;35.30;;;19.60;;
59728;SDS011;45588;51.598;5.618;2023-03-01T07:48:18;37.58;;;22.33;;
59728;SDS011;45588;51.598;5.618;2023-03-01T07:50:43;39.22;;;23.13;;
59728;SDS011;45588;51.598;5.618;2023-03-01T07:53:08;46.08;;;23.55;;
59728;SDS011;45588;51.598;5.618;2023-03-01T07:55:34;35.47;;;21.48;;
59728;SDS011;45588;51.598;5.618;2023-03-01T07:57:59;42.30;;;23.63;;
59728;SDS011;45588;51.598;5.618;2023-03-01T08:00:24;35.45;;;20.52;;
59728;SDS011;45588;51.598;5.618;2023-03-01T08:02:49;37.70;;;19.05;;
59728;SDS011;45588;51.598;5.618;2023-03-01T08:05:14;37.92;;;19.13;;
59728;SDS011;45588;51.598;5.618;2023-03-01T08:07:40;30.45;;;19.38;;
59728;SDS011;45588;51.598;5.618;2023-03-01T08:10:05;31.23;;;19.60;;
59728;SDS011;45588;51.598;5.618;2023-03-01T08:12:30;35.50;;;18.55;;
59728;SDS011;45588;51.598;5.618;2023-03-01T08:14:56;31.20;;;18.85;;
59728;SDS011;45588;51.598;5.618;2023-03-01T08:17:22;35.78;;;21.33;;
59728;SDS011;45588;51.598;5.618;2023-03-01T08:19:47;29.30;;;18.42;;
59728;SDS011;45588;51.598;5.618;2023-03-01T08:22:12;33.72;;;22.10;;
59728;SDS011;45588;51.598;5.618;2023-03-01T08:24:37;27.65;;;17.83;;
59728;SDS011;45588;51.598;5.618;2023-03-01T08:27:03;32.85;;;18.70;;
59728;SDS011;45588;51.598;5.618;2023-03-01T08:29:30;30.60;;;19.58;;
59728;SDS011;45588;51.598;5.618;2023-03-01T08:31:55;31.08;;;17.25;;
59728;SDS011;45588;51.598;5.618;2023-03-01T08:34:20;27.13;;;16.52;;
59728;SDS011;45588;51.598;5.618;2023-03-01T08:36:45;25.65;;;15.13;;
59728;SDS011;45588;51.598;5.618;2023-03-01T08:39:12;31.85;;;17.73;;
59728;SDS011;45588;51.598;5.618;2023-03-01T08:41:38;30.80;;;19.33;;
59728;SDS011;45588;51.598;5.618;2023-03-01T08:44:04;29.60;;;17.13;;
59728;SDS011;45588;51.598;5.618;2023-03-01T08:46:30;31.42;;;17.35;;
59728;SDS011;45588;51.598;5.618;2023-03-01T08:48:56;30.30;;;16.67;;
59728;SDS011;45588;51.598;5.618;2023-03-01T08:51:21;28.83;;;17.08;;
59728;SDS011;45588;51.598;5.618;2023-03-01T08:53:47;23.20;;;15.68;;
59728;SDS011;45588;51.598;5.618;2023-03-01T08:56:13;22.48;;;15.00;;
59728;SDS011;45588;51.598;5.618;2023-03-01T08:58:38;24.73;;;15.18;;
59728;SDS011;45588;51.598;5.618;2023-03-01T09:01:07;24.65;;;15.70;;
59728;SDS011;45588;51.598;5.618;2023-03-01T09:03:33;21.02;;;14.35;;
59728;SDS011;45588;51.598;5.618;2023-03-01T09:06:02;26.17;;;14.75;;
59728;SDS011;45588;51.598;5.618;2023-03-01T09:08:27;22.77;;;15.10;;
59728;SDS011;45588;51.598;5.618;2023-03-01T09:10:53;21.70;;;14.98;;
59728;SDS011;45588;51.598;5.618;2023-03-01T09:13:18;21.67;;;13.57;;
59728;SDS011;45588;51.598;5.618;2023-03-01T09:15:43;22.15;;;13.10;;
59728;SDS011;45588;51.598;5.618;2023-03-01T09:18:08;19.52;;;13.95;;
59728;SDS011;45588;51.598;5.618;2023-03-01T09:20:33;20.90;;;14.30;;
59728;SDS011;45588;51.598;5.618;2023-03-01T09:22:59;23.65;;;18.00;;
59728;SDS011;45588;51.598;5.618;2023-03-01T09:25:24;20.40;;;14.60;;
59728;SDS011;45588;51.598;5.618;2023-03-01T09:27:53;20.38;;;12.38;;
59728;SDS011;45588;51.598;5.618;2023-03-01T09:30:18;19.15;;;11.45;;
59728;SDS011;45588;51.598;5.618;2023-03-01T09:32:43;21.33;;;14.35;;
59728;SDS011;45588;51.598;5.618;2023-03-01T09:35:09;23.10;;;14.82;;
59728;SDS011;45588;51.598;5.618;2023-03-01T09:37:35;22.20;;;18.58;;
59728;SDS011;45588;51.598;5.618;2023-03-01T09:40:01;26.48;;;15.57;;
59728;SDS011;45588;51.598;5.618;2023-03-01T09:42:27;21.55;;;11.13;;
59728;SDS011;45588;51.598;5.618;2023-03-01T09:44:54;20.95;;;17.40;;
59728;SDS011;45588;51.598;5.618;2023-03-01T09:47:26;21.40;;;13.77;;
59728;SDS011;45588;51.598;5.618;2023-03-01T09:52:33;21.70;;;14.38;;
59728;SDS011;45588;51.598;5.618;2023-03-01T09:55:01;19.30;;;10.23;;
59728;SDS011;45588;51.598;5.618;2023-03-01T09:57:36;16.13;;;10.57;;
59728;SDS011;45588;51.598;5.618;2023-03-01T10:02:49;21.77;;;11.15;;
59728;SDS011;45588;51.598;5.618;2023-03-01T10:07:54;22.15;;;15.65;;
59728;SDS011;45588;51.598;5.618;2023-03-01T10:10:28;21.25;;;18.83;;
59728;SDS011;45588;51.598;5.618;2023-03-01T10:12:54;16.20;;;9.13;;
59728;SDS011;45588;51.598;5.618;2023-03-01T10:15:22;17.98;;;12.63;;
59728;SDS011;45588;51.598;5.618;2023-03-01T10:17:51;21.88;;;13.60;;
59728;SDS011;45588;51.598;5.618;2023-03-01T10:22:42;15.52;;;8.85;;
59728;SDS011;45588;51.598;5.618;2023-03-01T10:25:12;18.13;;;10.20;;
59728;SDS011;45588;51.598;5.618;2023-03-01T10:27:52;20.15;;;11.95;;
59728;SDS011;45588;51.598;5.618;2023-03-01T10:30:19;21.15;;;16.20;;
59728;SDS011;45588;51.598;5.618;2023-03-01T10:32:45;21.15;;;12.40;;
59728;SDS011;45588;51.598;5.618;2023-03-01T10:40:22;20.58;;;16.17;;
59728;SDS011;45588;51.598;5.618;2023-03-01T10:42:49;22.48;;;14.45;;
59728;SDS011;45588;51.598;5.618;2023-03-01T10:48:05;20.13;;;12.97;;
59728;SDS011;45588;51.598;5.618;2023-03-01T10:50:30;21.02;;;14.82;;
59728;SDS011;45588;51.598;5.618;2023-03-01T10:52:57;19.60;;;14.52;;
59728;SDS011;45588;51.598;5.618;2023-03-01T10:55:41;20.15;;;17.55;;
59728;SDS011;45588;51.598;5.618;2023-03-01T10:58:07;22.77;;;13.85;;
59728;SDS011;45588;51.598;5.618;2023-03-01T11:00:33;17.65;;;11.70;;
59728;SDS011;45588;51.598;5.618;2023-03-01T11:03:12;18.35;;;13.65;;
59728;SDS011;45588;51.598;5.618;2023-03-01T11:05:44;20.45;;;12.00;;
59728;SDS011;45588;51.598;5.618;2023-03-01T11:08:14;18.20;;;10.27;;
59728;SDS011;45588;51.598;5.618;2023-03-01T11:10:39;19.58;;;17.48;;
59728;SDS011;45588;51.598;5.618;2023-03-01T11:13:06;17.35;;;8.88;;
59728;SDS011;45588;51.598;5.618;2023-03-01T11:15:32;23.15;;;14.60;;
59728;SDS011;45588;51.598;5.618;2023-03-01T11:17:57;18.13;;;10.93;;
59728;SDS011;45588;51.598;5.618;2023-03-01T11:22:49;20.35;;;13.93;;
59728;SDS011;45588;51.598;5.618;2023-03-01T11:25:15;18.17;;;16.10;;
59728;SDS011;45588;51.598;5.618;2023-03-01T11:27:43;18.08;;;15.55;;
59728;SDS011;45588;51.598;5.618;2023-03-01T11:35:27;16.73;;;11.18;;
59728;SDS011;45588;51.598;5.618;2023-03-01T11:40:33;16.13;;;10.68;;
59728;SDS011;45588;51.598;5.618;2023-03-01T11:43:11;17.90;;;12.52;;
59728;SDS011;45588;51.598;5.618;2023-03-01T11:45:42;20.00;;;13.30;;
59728;SDS011;45588;51.598;5.618;2023-03-01T11:48:24;18.25;;;13.55;;
59728;SDS011;45588;51.598;5.618;2023-03-01T11:50:51;18.00;;;16.10;;
59728;SDS011;45588;51.598;5.618;2023-03-01T11:53:21;20.08;;;13.57;;
59728;SDS011;45588;51.598;5.618;2023-03-01T12:06:09;12.25;;;7.93;;
59728;SDS011;45588;51.598;5.618;2023-03-01T12:24:21;17.17;;;11.98;;
59728;SDS011;45588;51.598;5.618;2023-03-01T12:27:01;17.67;;;12.13;;
59728;SDS011;45588;51.598;5.618;2023-03-01T12:29:41;15.35;;;9.68;;
59728;SDS011;45588;51.598;5.618;2023-03-01T12:34:52;17.17;;;12.32;;
59728;SDS011;45588;51.598;5.618;2023-03-01T12:42:41;18.83;;;15.32;;
59728;SDS011;45588;51.598;5.618;2023-03-01T12:45:25;16.52;;;12.68;;
59728;SDS011;45588;51.598;5.618;2023-03-01T12:48:03;16.80;;;12.30;;
59728;SDS011;45588;51.598;5.618;2023-03-01T12:51:04;16.90;;;10.35;;
59728;SDS011;45588;51.598;5.618;2023-03-01T12:55:47;16.77;;;12.43;;
59728;SDS011;45588;51.598;5.618;2023-03-01T13:00:45;16.40;;;14.68;;
59728;SDS011;45588;51.598;5.618;2023-03-01T13:08:53;16.65;;;12.55;;
59728;SDS011;45588;51.598;5.618;2023-03-01T13:11:21;16.08;;;11.65;;
59728;SDS011;45588;51.598;5.618;2023-03-01T13:13:47;15.63;;;13.90;;
59728;SDS011;45588;51.598;5.618;2023-03-01T13:19:10;15.82;;;9.27;;
59728;SDS011;45588;51.598;5.618;2023-03-01T13:21:38;17.88;;;11.00;;
59728;SDS011;45588;51.598;5.618;2023-03-01T13:24:03;15.27;;;13.65;;
59728;SDS011;45588;51.598;5.618;2023-03-01T13:26:29;13.40;;;11.35;;
59728;SDS011;45588;51.598;5.618;2023-03-01T13:28:54;17.13;;;14.93;;
59728;SDS011;45588;51.598;5.618;2023-03-01T13:33:51;13.00;;;10.73;;
59728;SDS011;45588;51.598;5.618;2023-03-01T13:46:42;18.45;;;12.30;;
59728;SDS011;45588;51.598;5.618;2023-03-01T13:49:09;15.40;;;12.27;;
59728;SDS011;45588;51.598;5.618;2023-03-01T13:51:36;14.98;;;13.38;;
59728;SDS011;45588;51.598;5.618;2023-03-01T13:54:01;14.60;;;11.40;;
59728;SDS011;45588;51.598;5.618;2023-03-01T13:56:33;15.25;;;12.65;;
59728;SDS011;45588;51.598;5.618;2023-03-01T13:59:13;17.27;;;14.68;;
59728;SDS011;45588;51.598;5.618;2023-03-01T14:01:38;15.43;;;12.30;;
59728;SDS011;45588;51.598;5.618;2023-03-01T14:04:03;15.57;;;12.93;;
59728;SDS011;45588;51.598;5.618;2023-03-01T14:06:42;15.98;;;11.93;;
59728;SDS011;45588;51.598;5.618;2023-03-01T14:09:15;15.50;;;12.75;;
59728;SDS011;45588;51.598;5.618;2023-03-01T14:11:51;15.45;;;13.85;;
59728;SDS011;45588;51.598;5.618;2023-03-01T14:19:29;16.00;;;12.43;;
59728;SDS011;45588;51.598;5.618;2023-03-01T14:22:04;14.52;;;10.90;;
59728;SDS011;45588;51.598;5.618;2023-03-01T14:24:39;17.10;;;15.40;;
59728;SDS011;45588;51.598;5.618;2023-03-01T14:27:09;18.40;;;13.57;;
59728;SDS011;45588;51.598;5.618;2023-03-01T14:29:35;15.57;;;13.48;;
59728;SDS011;45588;51.598;5.618;2023-03-01T14:32:11;16.15;;;12.40;;
59728;SDS011;45588;51.598;5.618;2023-03-01T14:34:38;16.55;;;12.82;;
59728;SDS011;45588;51.598;5.618;2023-03-01T14:37:49;17.15;;;15.35;;
59728;SDS011;45588;51.598;5.618;2023-03-01T14:39:56;15.82;;;13.50;;
59728;SDS011;45588;51.598;5.618;2023-03-01T14:42:22;18.50;;;13.35;;
59728;SDS011;45588;51.598;5.618;2023-03-01T14:44:49;14.88;;;13.13;;
59728;SDS011;45588;51.598;5.618;2023-03-01T14:47:16;17.40;;;11.95;;
59728;SDS011;45588;51.598;5.618;2023-03-01T14:49:44;17.02;;;15.32;;
59728;SDS011;45588;51.598;5.618;2023-03-01T14:52:20;17.17;;;15.40;;
59728;SDS011;45588;51.598;5.618;2023-03-01T14:54:48;18.63;;;12.50;;
59728;SDS011;45588;51.598;5.618;2023-03-01T14:57:14;15.70;;;9.57;;
59728;SDS011;45588;51.598;5.618;2023-03-01T14:59:40;19.33;;;13.95;;
59728;SDS011;45588;51.598;5.618;2023-03-01T15:02:08;16.65;;;13.23;;
59728;SDS011;45588;51.598;5.618;2023-03-01T15:04:35;17.55;;;15.75;;
59728;SDS011;45588;51.598;5.618;2023-03-01T15:07:00;15.43;;;13.68;;
59728;SDS011;45588;51.598;5.618;2023-03-01T15:09:29;18.77;;;14.25;;
59728;SDS011;45588;51.598;5.618;2023-03-01T15:11:55;18.58;;;16.48;;
59728;SDS011;45588;51.598;5.618;2023-03-01T15:17:01;15.53;;;11.90;;
59728;SDS011;45588;51.598;5.618;2023-03-01T15:19:26;15.65;;;11.45;;
59728;SDS011;45588;51.598;5.618;2023-03-01T15:21:52;16.48;;;14.18;;
59728;SDS011;45588;51.598;5.618;2023-03-01T15:24:20;17.73;;;14.25;;
59728;SDS011;45588;51.598;5.618;2023-03-01T15:26:49;19.00;;;17.05;;
59728;SDS011;45588;51.598;5.618;2023-03-01T15:29:19;19.77;;;14.37;;
59728;SDS011;45588;51.598;5.618;2023-03-01T15:32:02;17.77;;;15.85;;
59728;SDS011;45588;51.598;5.618;2023-03-01T15:34:38;16.25;;;11.25;;
59728;SDS011;45588;51.598;5.618;2023-03-01T15:37:05;13.98;;;11.75;;
59728;SDS011;45588;51.598;5.618;2023-03-01T15:39:35;16.35;;;11.90;;
59728;SDS011;45588;51.598;5.618;2023-03-01T15:42:04;18.15;;;12.90;;
59728;SDS011;45588;51.598;5.618;2023-03-01T15:44:31;17.42;;;15.63;;
59728;SDS011;45588;51.598;5.618;2023-03-01T15:46:56;18.25;;;13.80;;
59728;SDS011;45588;51.598;5.618;2023-03-01T15:49:39;18.00;;;14.77;;
59728;SDS011;45588;51.598;5.618;2023-03-01T15:52:06;15.23;;;11.45;;
59728;SDS011;45588;51.598;5.618;2023-03-01T15:54:34;16.98;;;14.45;;
59728;SDS011;45588;51.598;5.618;2023-03-01T15:57:00;18.25;;;13.63;;
59728;SDS011;45588;51.598;5.618;2023-03-01T15:59:25;17.23;;;12.25;;
59728;SDS011;45588;51.598;5.618;2023-03-01T16:01:50;15.68;;;12.77;;
59728;SDS011;45588;51.598;5.618;2023-03-01T16:04:17;17.40;;;15.38;;